KMXF/MXF METAR and TAF weather

Enter ICAO airport designator
Station Type Date Time Source
KMXF METAR 2019/05/26 01:56 UTC NOAA

KMXF 260156Z AUTO 00000KT 10SM CLR 26/22 A3009 RMK AO2 SLP190 T02590217


Station Type Date Time Source
KMXF Decoded METAR 2019/05/26 01:56 UTC NOAA

Maxwell Air Force Base / Montgomery, AL, United States (KMXF) 32-23N 086-22W
May 25, 2019 - 09:56 PM EDT / 2019.05.26 0156 UTC
Wind: Calm:0
Visibility: 10 mile(s):0
Sky conditions: clear
Temperature: 78.6 F (25.9 C)
Dew Point: 71.1 F (21.7 C)
Relative Humidity: 77%
Pressure (altimeter): 30.09 in. Hg (1018 hPa)
ob: KMXF 260156Z AUTO 00000KT 10SM CLR 26/22 A3009 RMK AO2 SLP190 T02590217
cycle: 2

Station Type Date Time Source
KMXF TAF 2019/05/23 22:03 UTC NOAA

TAF TAF
AMD KMXF 232200Z 2322/2501 15006KT 9999 FEW055 FEW110 QNH3006INS
BECMG 2412/2413 22006KT 9999 FEW035 SCT070 QNH3006INS TX33/2322Z TN20/2411Z LAST NO
AMDS AFT 2322 NEXT 2811

Example: see airport list